createdAt,value
2022-11-17T00:02:41.619Z,99919.69
2022-11-17T00:06:44.260Z,99914.56
2022-11-17T00:10:45.859Z,99919.41
2022-11-17T00:14:47.796Z,99918.63
2022-11-17T00:19:07.975Z,99925.06
2022-11-17T00:23:09.888Z,99937.69
2022-11-17T00:27:12.025Z,99946.88
2022-11-17T00:31:33.206Z,99948.38
2022-11-17T00:35:34.795Z,99946.88
2022-11-17T00:39:36.798Z,99949.47
2022-11-17T00:43:38.425Z,99957.91
2022-11-17T00:47:40.390Z,99965.06
2022-11-17T00:51:42.547Z,99971.44
2022-11-17T00:55:44.799Z,99970.31
2022-11-17T00:59:46.415Z,99978.47
2022-11-17T01:03:48.807Z,99984.41
2022-11-17T01:07:52.971Z,99973.16
2022-11-17T01:11:54.906Z,99981.44
2022-11-17T01:15:56.577Z,99979.88
2022-11-17T01:19:58.659Z,99975.38
2022-11-17T01:24:02.000Z,99979.03
2022-11-17T01:28:04.090Z,99981.81
2022-11-17T01:32:05.728Z,99975.81
2022-11-17T01:36:12.623Z,99983.41
2022-11-17T01:40:14.610Z,99981.19
2022-11-17T01:44:41.654Z,99982.84
2022-11-17T01:48:44.756Z,99988.97
2022-11-17T01:52:49.205Z,99985.94
2022-11-17T01:56:55.686Z,99964.63
2022-11-17T02:00:58.056Z,99967.56
2022-11-17T02:05:05.812Z,99969.31
2022-11-17T02:09:08.596Z,99973.63
2022-11-17T02:13:10.321Z,99972.59
2022-11-17T02:17:14.516Z,99958.03
2022-11-17T02:21:41.311Z,99965.91
2022-11-17T02:25:53.240Z,99954.41
2022-11-17T02:30:07.399Z,99947.72
2022-11-17T02:34:12.329Z,99943.91
2022-11-17T02:38:31.786Z,99949.16
2022-11-17T02:42:58.858Z,99952.41
2022-11-17T02:47:20.945Z,99942.88
2022-11-17T02:51:24.642Z,99941.31
2022-11-17T02:55:27.658Z,99936.63
2022-11-17T02:59:36.936Z,99944.50
2022-11-17T03:04:04.117Z,99947.22
2022-11-17T03:08:20.336Z,99954.00
2022-11-17T03:12:24.433Z,99954.41
2022-11-17T03:16:41.542Z,99955.88
2022-11-17T03:21:10.392Z,99950.06
2022-11-17T03:25:17.873Z,99960.38
2022-11-17T03:29:23.910Z,99958.53
2022-11-17T03:33:28.986Z,99959.34
2022-11-17T03:37:33.693Z,99954.16
2022-11-17T03:41:41.685Z,99948.78
2022-11-17T03:45:51.499Z,99954.13
2022-11-17T03:50:03.758Z,99950.56
2022-11-17T03:54:06.226Z,99961.94
2022-11-17T03:58:15.319Z,99956.59
2022-11-17T04:02:19.278Z,99947.31
2022-11-17T04:06:21.236Z,99941.75
2022-11-17T04:10:25.727Z,99942.00
2022-11-17T04:14:46.513Z,99944.63
2022-11-17T04:18:48.663Z,99950.25
2022-11-17T04:23:07.112Z,99950.16
2022-11-17T04:27:27.834Z,99954.94
2022-11-17T04:31:31.839Z,99955.00
2022-11-17T04:35:33.462Z,99961.31
2022-11-17T04:39:38.662Z,99958.06
2022-11-17T04:43:40.334Z,99958.06
2022-11-17T04:47:42.204Z,99964.19
2022-11-17T04:51:44.337Z,99958.22
2022-11-17T04:55:46.282Z,99954.00
2022-11-17T04:59:47.927Z,99966.66
2022-11-17T05:03:53.824Z,99958.25
2022-11-17T05:07:55.662Z,99962.25
2022-11-17T05:12:16.068Z,99965.78
2022-11-17T05:16:37.588Z,99961.25
2022-11-17T05:20:39.516Z,99972.03
2022-11-17T05:24:41.140Z,99958.53
2022-11-17T05:28:43.554Z,99962.22
2022-11-17T05:32:45.276Z,99966.75
2022-11-17T05:36:47.204Z,99964.09
2022-11-17T05:40:48.866Z,99971.09
2022-11-17T05:44:51.058Z,99962.66
2022-11-17T05:48:53.398Z,99967.06
2022-11-17T05:52:55.300Z,99973.09
2022-11-17T05:57:03.085Z,99970.97
2022-11-17T06:01:06.675Z,99981.00
2022-11-17T06:05:09.773Z,99975.88
2022-11-17T06:09:12.574Z,99980.72
2022-11-17T06:13:14.242Z,99983.34
2022-11-17T06:17:25.895Z,99995.28
2022-11-17T06:21:43.210Z,99996.91
2022-11-17T06:25:49.900Z,99994.50
2022-11-17T06:29:52.061Z,99996.03
2022-11-17T06:33:54.220Z,99986.88
2022-11-17T06:37:55.830Z,100002.97
2022-11-17T06:41:57.748Z,100006.56
2022-11-17T06:46:05.835Z,100025.06
2022-11-17T06:50:08.819Z,100021.22
2022-11-17T06:54:12.376Z,100022.06
2022-11-17T06:58:15.034Z,100024.53
2022-11-17T07:02:16.925Z,100023.47
2022-11-17T07:06:19.089Z,100027.91
2022-11-17T07:10:20.956Z,100032.19
2022-11-17T07:14:22.914Z,100028.44
2022-11-17T07:18:24.582Z,100027.75
2022-11-17T07:22:26.654Z,100022.50
2022-11-17T07:26:28.500Z,100029.88
2022-11-17T07:30:30.634Z,100033.44
2022-11-17T07:34:32.440Z,100038.44
2022-11-17T07:38:35.863Z,100042.69
2022-11-17T07:42:37.760Z,100049.41
2022-11-17T07:46:40.882Z,100051.63
2022-11-17T07:50:42.608Z,100051.69
2022-11-17T07:54:44.640Z,100047.81
2022-11-17T07:58:46.506Z,100047.38
2022-11-17T08:02:48.426Z,100049.00
2022-11-17T08:06:50.109Z,100041.44
2022-11-17T08:10:52.075Z,100048.13
2022-11-17T08:14:53.716Z,100048.34
2022-11-17T08:18:55.586Z,100053.63
2022-11-17T08:22:57.353Z,100054.75
2022-11-17T08:26:59.295Z,100050.84
2022-11-17T08:31:02.651Z,100052.34
2022-11-17T08:35:06.913Z,100043.97
2022-11-17T08:39:08.662Z,100046.50
2022-11-17T08:43:10.582Z,100046.94
2022-11-17T08:47:12.432Z,100047.56
2022-11-17T08:51:15.042Z,100051.81
2022-11-17T08:55:16.877Z,100049.50
2022-11-17T08:59:18.879Z,100053.44
2022-11-17T09:03:20.555Z,100049.13
2022-11-17T09:07:22.669Z,100051.53
2022-11-17T09:11:24.454Z,100051.72
2022-11-17T09:15:26.392Z,100040.22
2022-11-17T09:19:28.092Z,100045.63
2022-11-17T09:23:31.678Z,100037.63
2022-11-17T09:27:33.504Z,100034.13
2022-11-17T09:31:36.082Z,100030.75
2022-11-17T09:35:37.962Z,100034.97
2022-11-17T09:39:39.870Z,100031.47
2022-11-17T09:43:52.570Z,100026.28
2022-11-17T09:48:40.284Z,100022.50
2022-11-17T09:53:04.967Z,100019.78
2022-11-17T09:57:18.660Z,100020.63
2022-11-17T10:01:22.408Z,100013.88
2022-11-17T10:05:34.695Z,100013.06
2022-11-17T10:09:41.426Z,100011.28
2022-11-17T10:13:43.195Z,100010.94
2022-11-17T10:17:45.137Z,100008.53
2022-11-17T10:21:51.883Z,100010.81
2022-11-17T10:25:58.606Z,100010.53
2022-11-17T10:30:14.783Z,100006.13
2022-11-17T10:34:41.086Z,100006.59
2022-11-17T10:38:45.674Z,100003.38
2022-11-17T10:42:57.943Z,100011.53
2022-11-17T10:47:04.018Z,100009.56
2022-11-17T10:51:19.543Z,100000.78
2022-11-17T10:55:34.057Z,100010.03
2022-11-17T10:59:59.641Z,100000.06
2022-11-17T11:04:03.270Z,100003.88
2022-11-17T11:08:25.161Z,100002.00
2022-11-17T11:12:53.985Z,100003.03
2022-11-17T11:16:56.341Z,100002.03
2022-11-17T11:21:04.748Z,99996.28
2022-11-17T11:25:21.918Z,100000.00
2022-11-17T11:29:39.476Z,99995.00
2022-11-17T11:34:10.337Z,99992.44
2022-11-17T11:38:24.359Z,99993.59
2022-11-17T11:42:58.024Z,99985.16
2022-11-17T11:47:11.221Z,99989.84
2022-11-17T11:51:19.337Z,99988.63
2022-11-17T11:55:24.363Z,99987.94
2022-11-17T11:59:43.382Z,99995.50
2022-11-17T12:03:49.803Z,100001.19
2022-11-17T12:08:17.578Z,99998.63
2022-11-17T12:12:26.862Z,99993.91
2022-11-17T12:16:33.428Z,99994.63
2022-11-17T12:20:38.598Z,99989.00
2022-11-17T12:24:41.920Z,99984.75
2022-11-17T12:28:43.798Z,99981.88
2022-11-17T12:32:48.426Z,99976.44
2022-11-17T12:37:15.418Z,99977.13
2022-11-17T12:41:48.374Z,99966.91
2022-11-17T12:45:53.492Z,99966.06
2022-11-17T12:50:08.989Z,99965.66
2022-11-17T12:54:22.174Z,99967.38
2022-11-17T12:58:48.685Z,99959.25
2022-11-17T13:03:10.351Z,99961.94
2022-11-17T13:07:23.649Z,99947.47
2022-11-17T13:11:26.753Z,99946.16
2022-11-17T13:15:28.453Z,99954.97
2022-11-17T13:19:34.181Z,99950.16
2022-11-17T13:23:44.272Z,99957.88
2022-11-17T13:27:51.138Z,99947.56
2022-11-17T13:32:28.401Z,99950.53
2022-11-17T13:36:30.528Z,99944.59
2022-11-17T13:40:35.470Z,99944.78
2022-11-17T13:44:37.527Z,99941.13
2022-11-17T13:48:44.567Z,99932.56
2022-11-17T13:52:47.396Z,99935.03
2022-11-17T13:56:49.151Z,99935.25
2022-11-17T14:00:53.357Z,99942.34
2022-11-17T14:05:14.474Z,99935.69
2022-11-17T14:09:18.554Z,99938.44
2022-11-17T14:13:23.854Z,99940.44
2022-11-17T14:17:25.895Z,99934.69
2022-11-17T14:21:28.753Z,99926.59
2022-11-17T14:25:33.964Z,99928.50
2022-11-17T14:29:35.625Z,99922.47
2022-11-17T14:33:37.552Z,99920.06
2022-11-17T14:37:39.249Z,99920.25
2022-11-17T14:41:42.348Z,99931.00
2022-11-17T14:45:44.750Z,99920.78
2022-11-17T14:49:46.785Z,99919.53
2022-11-17T14:53:48.873Z,99913.06
2022-11-17T14:57:50.912Z,99905.50
2022-11-17T15:01:53.990Z,99904.16
2022-11-17T15:05:55.910Z,99893.03
2022-11-17T15:09:57.728Z,99895.81
2022-11-17T15:14:04.588Z,99882.47
2022-11-17T15:18:06.562Z,99865.84
2022-11-17T15:22:08.487Z,99871.56
2022-11-17T15:26:16.577Z,99872.53
2022-11-17T15:30:18.694Z,99860.69
2022-11-17T15:34:20.825Z,99852.41
2022-11-17T15:38:22.814Z,99844.81
2022-11-17T15:42:24.464Z,99839.78
2022-11-17T15:46:26.330Z,99838.75
2022-11-17T15:50:28.371Z,99829.16
2022-11-17T15:54:30.320Z,99811.94
2022-11-17T15:58:32.474Z,99813.38
2022-11-17T16:02:34.368Z,99810.69
2022-11-17T16:06:39.529Z,99829.63
2022-11-17T16:10:41.473Z,99822.69
2022-11-17T16:14:43.341Z,99833.06
2022-11-17T16:18:45.213Z,99845.13
2022-11-17T16:22:47.971Z,99833.13
2022-11-17T16:26:49.909Z,99840.66
2022-11-17T16:30:51.675Z,99832.78
2022-11-17T16:34:53.600Z,99830.19
2022-11-17T16:39:01.792Z,99833.56
2022-11-17T16:43:04.128Z,99832.50
2022-11-17T16:47:05.878Z,99828.28
2022-11-17T16:51:08.625Z,99810.97
2022-11-17T16:55:10.273Z,99812.78
2022-11-17T16:59:12.404Z,99816.09
2022-11-17T17:03:16.829Z,99812.81
2022-11-17T17:07:18.855Z,99814.41
2022-11-17T17:11:20.772Z,99813.25
2022-11-17T17:15:22.695Z,99824.97
2022-11-17T17:19:24.484Z,99822.25
2022-11-17T17:23:27.121Z,99818.50
2022-11-17T17:27:30.381Z,99823.69
2022-11-17T17:31:35.197Z,99835.50
2022-11-17T17:35:36.880Z,99832.06
2022-11-17T17:39:38.790Z,99848.38
2022-11-17T17:43:41.959Z,99856.91
2022-11-17T17:47:43.899Z,99846.53
2022-11-17T17:51:45.869Z,99840.59
2022-11-17T17:55:47.761Z,99836.31
2022-11-17T17:59:49.457Z,99835.63
2022-11-17T18:04:01.053Z,99845.59
2022-11-17T18:08:04.768Z,99826.84
2022-11-17T18:12:06.694Z,99817.38
2022-11-17T18:16:11.347Z,99818.31
2022-11-17T18:20:13.405Z,99837.25
2022-11-17T18:24:15.165Z,99831.09
2022-11-17T18:28:17.062Z,99828.59
2022-11-17T18:32:18.693Z,99822.19
2022-11-17T18:36:21.526Z,99824.75
2022-11-17T18:40:23.320Z,99815.50
2022-11-17T18:44:25.180Z,99810.31
2022-11-17T18:48:26.961Z,99809.56
2022-11-17T18:52:31.554Z,99803.06
2022-11-17T18:56:35.540Z,99796.09
2022-11-17T19:00:37.443Z,99801.16
2022-11-17T19:04:39.181Z,99796.13
2022-11-17T19:08:41.377Z,99795.78
2022-11-17T19:12:42.985Z,99794.38
2022-11-17T19:16:45.384Z,99796.53
2022-11-17T19:20:47.164Z,99799.94
2022-11-17T19:24:49.059Z,99802.28
2022-11-17T19:28:55.635Z,99792.06
2022-11-17T19:32:57.973Z,99789.59
2022-11-17T19:36:59.630Z,99788.75
2022-11-17T19:41:03.394Z,99788.75
2022-11-17T19:45:05.274Z,99788.94
2022-11-17T19:49:08.030Z,99787.34
2022-11-17T19:53:09.849Z,99775.63
2022-11-17T19:57:11.730Z,99771.28
2022-11-17T20:01:15.797Z,99779.78
2022-11-17T20:05:17.797Z,99790.09
2022-11-17T20:09:19.661Z,99788.88
2022-11-17T20:13:21.630Z,99790.81
2022-11-17T20:17:23.547Z,99780.41
2022-11-17T20:21:27.390Z,99783.03
2022-11-17T20:25:30.630Z,99791.53
2022-11-17T20:29:32.577Z,99787.19
2022-11-17T20:33:34.488Z,99780.25
2022-11-17T20:37:36.378Z,99767.63
2022-11-17T20:41:38.286Z,99763.09
2022-11-17T20:45:40.193Z,99761.47
2022-11-17T20:49:41.854Z,99763.34
2022-11-17T20:53:44.561Z,99753.88
2022-11-17T20:57:46.245Z,99743.56
2022-11-17T21:01:49.366Z,99736.66
2022-11-17T21:05:59.606Z,99726.19
2022-11-17T21:10:01.672Z,99713.22
2022-11-17T21:14:05.535Z,99697.72
2022-11-17T21:18:25.376Z,99691.03
2022-11-17T21:22:27.293Z,99686.06
2022-11-17T21:26:29.200Z,99682.72
2022-11-17T21:30:32.498Z,99670.72
2022-11-17T21:34:34.262Z,99670.09
2022-11-17T21:38:36.904Z,99667.50
2022-11-17T21:42:38.590Z,99662.06
2022-11-17T21:46:40.698Z,99662.09
2022-11-17T21:50:45.969Z,99646.53
2022-11-17T21:54:48.010Z,99638.94
2022-11-17T21:58:53.535Z,99642.09
2022-11-17T22:02:55.574Z,99649.19
2022-11-17T22:06:57.348Z,99685.94
2022-11-17T22:11:03.780Z,99696.03
2022-11-17T22:15:11.328Z,99702.69
2022-11-17T22:19:16.111Z,99700.03
2022-11-17T22:23:18.552Z,99694.97
2022-11-17T22:27:22.190Z,99693.13
2022-11-17T22:31:24.075Z,99677.69
2022-11-17T22:35:25.964Z,99671.63
2022-11-17T22:39:27.540Z,99656.31
2022-11-17T22:43:29.928Z,99661.78
2022-11-17T22:47:31.507Z,99645.41
2022-11-17T22:51:51.988Z,99636.75
2022-11-17T22:55:54.129Z,99665.88
2022-11-17T22:59:56.046Z,99682.75
2022-11-17T23:03:57.967Z,99700.97
2022-11-17T23:08:00.893Z,99699.09
2022-11-17T23:12:05.327Z,99709.25
2022-11-17T23:16:07.965Z,99716.94
2022-11-17T23:20:10.295Z,99730.63
2022-11-17T23:24:14.509Z,99723.97
2022-11-17T23:28:16.146Z,99722.16
2022-11-17T23:32:18.276Z,99720.63
2022-11-17T23:36:21.865Z,99709.31
2022-11-17T23:40:24.294Z,99698.84
2022-11-17T23:44:25.903Z,99708.16
2022-11-17T23:48:27.811Z,99698.59
2022-11-17T23:52:29.419Z,99699.16
2022-11-17T23:56:33.594Z,99696.47
